Time;durP1;ratioP1;P1;durP2;ratioP2;P2;SDS_P1;SDS_P2;PMS_P1;PMS_P2;Temp;Humidity;BMP_temperature;BMP_pressure;BME280_temperature;BME280_humidity;BME280_pressure;Samples;Min_cycle;Max_cycle;Signal;HPM_P1;HPM_P2
2021/04/13 00:00:01;;;;;;;10.93;7.88;;;2.10;13.30;;;;;;4989651;28;20042;-71
2021/04/13 00:02:47;;;;;;;12.20;8.35;;;2.00;14.20;;;;;;4988925;28;20049;-70
2021/04/13 00:05:28;;;;;;;12.65;7.75;;;2.00;15.10;;;;;;4994027;28;20077;-70
2021/04/13 00:07:58;;;;;;;11.60;8.68;;;1.90;16.40;;;;;;4999522;28;20220;-71
2021/04/13 00:10:29;;;;;;;10.52;8.10;;;1.90;15.90;;;;;;4998716;28;20050;-71
2021/04/13 00:12:57;;;;;;;17.20;9.13;;;1.90;15.80;;;;;;4996406;28;20049;-71
2021/04/13 00:15:27;;;;;;;13.07;9.07;;;1.90;16.70;;;;;;5002503;28;20060;-70
2021/04/13 00:17:57;;;;;;;13.10;9.77;;;1.90;17.90;;;;;;5001613;28;20046;-68
2021/04/13 00:20:32;;;;;;;16.58;10.27;;;1.90;18.50;;;;;;4998862;28;20072;-71
2021/04/13 00:22:59;;;;;;;12.35;8.82;;;1.80;19.30;;;;;;4997232;28;20058;-70
2021/04/13 00:25:35;;;;;;;13.90;9.07;;;1.80;18.70;;;;;;4999142;28;20526;-72
2021/04/13 00:28:02;;;;;;;14.18;9.32;;;1.80;19.10;;;;;;5002000;28;20069;-71
2021/04/13 00:30:40;;;;;;;11.65;8.68;;;1.80;19.40;;;;;;4998986;28;20061;-71
2021/04/13 00:33:07;;;;;;;14.00;8.85;;;1.70;19.90;;;;;;4996612;28;20054;-71
2021/04/13 00:35:41;;;;;;;13.07;8.93;;;1.70;20.30;;;;;;5000495;28;20522;-70
2021/04/13 00:38:32;;;;;;;11.65;8.20;;;1.60;20.30;;;;;;4996371;28;20060;-72
2021/04/13 00:41:08;;;;;;;11.13;8.25;;;1.70;20.10;;;;;;5000419;28;20045;-71
2021/04/13 00:43:38;;;;;;;12.57;8.40;;;1.70;20.80;;;;;;4989995;28;20054;-71
2021/04/13 00:46:06;;;;;;;11.30;7.82;;;1.80;20.10;;;;;;4996597;28;20042;-70
2021/04/13 00:48:36;;;;;;;10.90;7.88;;;1.80;21.00;;;;;;4999503;28;20046;-71
2021/04/13 00:51:08;;;;;;;15.15;10.10;;;1.70;20.40;;;;;;5001351;28;20076;-72
2021/04/13 00:53:37;;;;;;;14.95;9.07;;;1.70;20.20;;;;;;4993750;28;20523;-72
2021/04/13 00:56:08;;;;;;;16.70;10.40;;;1.70;20.80;;;;;;5000008;28;20699;-72
2021/04/13 00:58:41;;;;;;;17.48;12.30;;;1.60;20.90;;;;;;4999798;28;20050;-72
2021/04/13 01:01:12;;;;;;;16.52;11.18;;;1.60;20.90;;;;;;4996477;28;20057;-72
2021/04/13 01:03:47;;;;;;;20.38;13.57;;;1.50;21.60;;;;;;4995034;28;20050;-71
2021/04/13 01:06:25;;;;;;;16.70;13.07;;;1.50;22.90;;;;;;5000095;28;20042;-71
2021/04/13 01:09:02;;;;;;;20.50;15.57;;;1.50;22.60;;;;;;4998097;28;20104;-71
2021/04/13 01:11:33;;;;;;;35.30;27.88;;;1.50;22.50;;;;;;4996223;28;20050;-72
2021/04/13 01:14:02;;;;;;;44.38;26.17;;;1.30;21.20;;;;;;4995153;28;20133;-71
2021/04/13 01:16:32;;;;;;;36.05;27.77;;;1.40;21.70;;;;;;5000505;28;20053;-70
2021/04/13 01:19:10;;;;;;;38.85;28.33;;;1.40;21.90;;;;;;5001023;28;20042;-70
2021/04/13 01:21:48;;;;;;;41.70;31.15;;;1.40;22.10;;;;;;5000599;28;20046;-71
2021/04/13 01:24:22;;;;;;;42.00;31.58;;;1.40;22.60;;;;;;4998054;28;20043;-71
2021/04/13 01:26:52;;;;;;;40.03;31.50;;;1.40;23.50;;;;;;4996870;28;20065;-72
2021/04/13 01:29:22;;;;;;;45.15;32.20;;;1.40;23.20;;;;;;5000045;28;20068;-72
2021/04/13 01:31:53;;;;;;;44.33;33.50;;;1.40;23.20;;;;;;4993317;28;20046;-71
2021/04/13 01:34:26;;;;;;;40.97;33.25;;;1.40;23.00;;;;;;4993318;28;20057;-71
2021/04/13 01:37:08;;;;;;;42.53;31.95;;;1.40;23.30;;;;;;4997007;28;20054;-70
2021/04/13 01:39:45;;;;;;;45.90;33.35;;;1.40;23.90;;;;;;4998215;28;20054;-72
2021/04/13 01:42:13;;;;;;;45.92;33.72;;;1.40;24.10;;;;;;4994788;28;20132;-72
2021/04/13 01:44:43;;;;;;;46.00;33.15;;;1.40;23.90;;;;;;5000273;28;20054;-70
2021/04/13 01:47:13;;;;;;;46.65;34.38;;;1.40;22.70;;;;;;4996289;28;20046;-70
2021/04/13 01:49:45;;;;;;;44.80;32.25;;;1.40;21.90;;;;;;5000372;28;20048;-70
2021/04/13 01:52:18;;;;;;;40.92;32.15;;;1.30;23.00;;;;;;4993265;28;20068;-70
2021/04/13 01:54:45;;;;;;;43.33;32.63;;;1.20;23.00;;;;;;4998638;28;20508;-69
2021/04/13 01:57:19;;;;;;;43.47;33.47;;;1.10;23.60;;;;;;4999274;28;21205;-70
2021/04/13 01:59:52;;;;;;;50.28;34.20;;;1.10;24.50;;;;;;4999971;28;20407;-70
2021/04/13 02:02:24;;;;;;;45.20;34.40;;;1.00;25.80;;;;;;4994175;28;20050;-71
2021/04/13 02:04:59;;;;;;;50.03;35.03;;;1.00;25.90;;;;;;5001714;28;20085;-71
2021/04/13 02:07:40;;;;;;;46.53;33.53;;;0.90;26.60;;;;;;4997774;28;20042;-71
2021/04/13 02:10:20;;;;;;;48.72;34.17;;;0.90;27.10;;;;;;4998956;28;20054;-71
2021/04/13 02:12:51;;;;;;;51.78;37.35;;;1.00;27.30;;;;;;4990082;28;20050;-71
2021/04/13 02:15:24;;;;;;;47.17;36.10;;;0.90;27.20;;;;;;4996086;28;20501;-71
2021/04/13 02:17:56;;;;;;;50.45;35.97;;;0.80;28.10;;;;;;4997666;28;20049;-71
2021/04/13 02:20:29;;;;;;;56.92;38.65;;;0.90;29.10;;;;;;4999024;28;20046;-70
2021/04/13 02:22:57;;;;;;;57.70;37.45;;;0.90;28.70;;;;;;4992783;28;20823;-70
2021/04/13 02:25:29;;;;;;;48.25;35.92;;;0.90;28.80;;;;;;4999232;28;20042;-70
2021/04/13 02:27:58;;;;;;;50.28;36.35;;;0.80;28.30;;;;;;5000140;28;20065;-70
2021/04/13 02:30:32;;;;;;;49.13;34.72;;;0.70;29.00;;;;;;4998471;28;20056;-70
2021/04/13 02:33:05;;;;;;;36.10;28.25;;;0.80;29.10;;;;;;4994169;28;20412;-70
2021/04/13 02:35:37;;;;;;;42.35;30.85;;;0.80;29.90;;;;;;4996235;28;20054;-71
2021/04/13 02:38:07;;;;;;;40.22;29.65;;;0.80;28.70;;;;;;4997997;28;20066;-71
2021/04/13 02:40:43;;;;;;;44.15;31.70;;;0.80;28.20;;;;;;4997570;28;20046;-71
2021/04/13 02:43:15;;;;;;;50.35;36.60;;;0.80;30.30;;;;;;4994770;28;20077;-70
2021/04/13 02:45:44;;;;;;;58.15;39.92;;;0.80;29.10;;;;;;4998753;28;20070;-70
2021/04/13 02:48:17;;;;;;;52.28;38.25;;;0.80;28.90;;;;;;4997813;28;20045;-71
2021/04/13 02:50:46;;;;;;;57.03;41.08;;;0.90;29.60;;;;;;4997517;28;20504;-71
2021/04/13 02:53:17;;;;;;;54.65;39.90;;;0.80;29.00;;;;;;4992716;28;20519;-70
2021/04/13 02:55:51;;;;;;;53.95;39.90;;;0.90;29.10;;;;;;4994995;28;20058;-71
2021/04/13 02:58:20;;;;;;;41.35;30.42;;;0.80;29.00;;;;;;4994316;28;20046;-70
2021/04/13 03:00:51;;;;;;;40.42;28.92;;;0.90;27.10;;;;;;4998497;28;20050;-70
2021/04/13 03:03:24;;;;;;;42.00;28.83;;;0.90;27.10;;;;;;4994170;28;20100;-72
2021/04/13 03:05:57;;;;;;;41.95;31.42;;;0.90;27.10;;;;;;4999606;28;20049;-72
2021/04/13 03:08:26;;;;;;;51.92;34.63;;;0.80;27.10;;;;;;4999055;28;20057;-70
2021/04/13 03:10:56;;;;;;;49.28;34.97;;;0.80;28.20;;;;;;5001741;28;20053;-70
2021/04/13 03:13:27;;;;;;;51.38;33.92;;;0.80;28.20;;;;;;4994203;28;20049;-71
2021/04/13 03:15:56;;;;;;;48.97;35.00;;;0.80;28.90;;;;;;4998796;28;20057;-71
2021/04/13 03:18:27;;;;;;;48.65;34.40;;;0.80;28.80;;;;;;4995206;28;20053;-71
2021/04/13 03:20:59;;;;;;;45.55;32.30;;;0.80;29.00;;;;;;4998754;28;20054;-71
2021/04/13 03:23:29;;;;;;;47.85;33.83;;;0.70;28.90;;;;;;4996192;28;20054;-71
2021/04/13 03:26:02;;;;;;;48.53;33.17;;;0.50;30.10;;;;;;5003248;28;20046;-71
2021/04/13 03:28:40;;;;;;;45.92;33.33;;;0.50;30.70;;;;;;5004513;28;20050;-71
2021/04/13 03:31:07;;;;;;;59.65;41.47;;;0.50;30.80;;;;;;4995692;28;20064;-71
2021/04/13 03:33:36;;;;;;;62.88;44.33;;;0.50;31.80;;;;;;4994358;28;20046;-71
2021/04/13 03:36:06;;;;;;;65.32;43.50;;;0.40;32.00;;;;;;5006221;28;20050;-70
2021/04/13 03:38:36;;;;;;;60.92;41.55;;;0.40;32.60;;;;;;4997048;28;20072;-71
2021/04/13 03:41:04;;;;;;;63.65;42.38;;;0.40;33.60;;;;;;5003563;28;20050;-71
2021/04/13 03:43:32;;;;;;;58.55;39.92;;;0.40;34.20;;;;;;5002320;28;20427;-70
2021/04/13 03:46:05;;;;;;;53.92;40.42;;;0.40;34.20;;;;;;5000680;28;20149;-70
2021/04/13 03:48:33;;;;;;;56.35;40.63;;;0.30;34.20;;;;;;4994525;28;20518;-71
2021/04/13 03:51:04;;;;;;;58.90;42.10;;;0.30;34.20;;;;;;5008220;28;20061;-71
2021/04/13 03:53:35;;;;;;;62.38;42.15;;;0.40;35.00;;;;;;4998838;28;20411;-71
2021/04/13 03:56:06;;;;;;;61.47;43.15;;;0.20;34.70;;;;;;5003561;28;20522;-71
2021/04/13 03:58:39;;;;;;;57.65;42.38;;;0.30;37.00;;;;;;5004139;28;20061;-71
2021/04/13 04:01:08;;;;;;;66.22;42.45;;;0.30;36.10;;;;;;4998649;28;20057;-70
2021/04/13 04:03:39;;;;;;;60.00;42.80;;;0.30;36.70;;;;;;5002147;28;20050;-71
2021/04/13 04:06:06;;;;;;;54.67;37.90;;;0.30;37.10;;;;;;5006903;28;20424;-70
2021/04/13 04:08:41;;;;;;;49.70;33.00;;;0.20;37.00;;;;;;4996813;28;20412;-70
2021/04/13 04:11:10;;;;;;;48.67;33.47;;;0.10;36.50;;;;;;5003564;28;20046;-70
2021/04/13 04:13:45;;;;;;;51.85;33.80;;;0.20;37.20;;;;;;5001348;28;20385;-71
2021/04/13 04:16:15;;;;;;;51.80;36.28;;;0.20;36.10;;;;;;4999532;28;20697;-71
2021/04/13 04:18:45;;;;;;;54.03;35.58;;;0.20;36.20;;;;;;5000647;28;20555;-71
2021/04/13 04:21:33;;;;;;;57.65;38.33;;;0.20;35.70;;;;;;5000657;28;20389;-71
2021/04/13 04:24:05;;;;;;;54.75;35.97;;;0.20;35.00;;;;;;4994730;28;20046;-71
2021/04/13 04:26:40;;;;;;;54.35;35.85;;;0.10;36.00;;;;;;5002134;28;20050;-71
2021/04/13 04:29:20;;;;;;;56.08;36.42;;;0.10;36.70;;;;;;5003663;28;20052;-71
2021/04/13 04:31:48;;;;;;;50.65;31.88;;;0.00;36.90;;;;;;4999461;28;20064;-72
2021/04/13 04:34:41;;;;;;;54.60;35.03;;;0.00;38.10;;;;;;4997543;28;20057;-71
2021/04/13 04:37:21;;;;;;;46.67;28.77;;;-0.10;37.30;;;;;;5001965;28;20390;-71
2021/04/13 04:40:10;;;;;;;44.88;29.77;;;-0.10;38.40;;;;;;4997168;28;20144;-71
2021/04/13 04:42:45;;;;;;;46.67;30.60;;;-0.10;38.70;;;;;;4997224;28;20060;-72
2021/04/13 04:45:15;;;;;;;44.95;31.10;;;-0.10;39.20;;;;;;5001417;28;20457;-71
2021/04/13 04:47:43;;;;;;;49.72;32.22;;;-0.10;39.80;;;;;;5001043;28;20423;-71
2021/04/13 04:50:12;;;;;;;50.05;29.90;;;-0.10;39.10;;;;;;5000274;28;20056;-71
2021/04/13 04:52:39;;;;;;;48.45;29.40;;;-0.10;38.00;;;;;;5000497;28;20061;-70
2021/04/13 04:55:07;;;;;;;40.40;29.00;;;0.00;38.40;;;;;;4998858;28;20144;-71
2021/04/13 04:57:34;;;;;;;43.90;28.67;;;0.00;38.10;;;;;;4997422;28;20056;-71
2021/04/13 05:00:02;;;;;;;47.17;30.60;;;0.00;38.10;;;;;;5003571;28;20710;-71
2021/04/13 05:02:28;;;;;;;43.38;28.45;;;0.10;38.10;;;;;;4997653;28;20046;-71
2021/04/13 05:04:55;;;;;;;42.33;27.00;;;0.20;36.60;;;;;;4997401;28;20050;-71
2021/04/13 05:07:22;;;;;;;40.45;28.65;;;0.30;35.10;;;;;;5001564;28;20047;-71
2021/04/13 05:09:49;;;;;;;41.22;27.38;;;0.50;33.70;;;;;;4998166;28;20128;-70
2021/04/13 05:12:16;;;;;;;37.92;26.63;;;0.60;32.40;;;;;;4997273;28;20065;-71
2021/04/13 05:14:43;;;;;;;37.42;26.55;;;0.90;30.30;;;;;;5000565;28;20446;-71
2021/04/13 05:17:10;;;;;;;40.42;26.75;;;1.20;27.30;;;;;;5002794;28;20519;-71
2021/04/13 05:19:37;;;;;;;42.88;27.70;;;1.60;23.20;;;;;;5002053;28;20046;-71
2021/04/13 05:22:04;;;;;;;35.60;23.38;;;1.70;18.80;;;;;;4996306;28;20065;-70
2021/04/13 05:24:31;;;;;;;29.92;20.23;;;1.70;18.40;;;;;;4998770;28;20053;-71
2021/04/13 05:26:58;;;;;;;28.63;19.55;;;2.30;14.40;;;;;;5000181;28;20053;-71
2021/04/13 05:29:24;;;;;;;27.48;18.52;;;3.60;5.30;;;;;;4997410;28;20052;-71
2021/04/13 05:31:51;;;;;;;20.20;15.18;;;4.30;1.00;;;;;;4993009;28;20051;-71
2021/04/13 05:34:19;;;;;;;16.85;12.07;;;3.90;1.00;;;;;;4992964;28;20046;-71
2021/04/13 05:36:53;;;;;;;19.02;13.25;;;3.90;1.00;;;;;;4999836;28;20056;-71
2021/04/13 05:39:20;;;;;;;18.67;12.10;;;2.70;5.50;;;;;;4998270;28;20447;-71
2021/04/13 05:41:48;;;;;;;18.67;12.45;;;2.50;9.50;;;;;;5002517;28;20246;-72
2021/04/13 05:44:15;;;;;;;27.58;12.80;;;1.90;9.30;;;;;;4996037;28;20045;-71
2021/04/13 05:46:42;;;;;;;18.88;10.80;;;1.90;12.20;;;;;;4997019;28;20473;-71
2021/04/13 05:49:11;;;;;;;22.38;11.30;;;1.70;13.50;;;;;;4999486;28;20129;-71
2021/04/13 05:51:39;;;;;;;15.30;11.02;;;1.90;12.70;;;;;;4998484;28;20046;-70
2021/04/13 05:54:06;;;;;;;14.73;10.73;;;1.90;10.90;;;;;;4991940;28;20042;-71
2021/04/13 05:56:37;;;;;;;13.90;9.75;;;2.30;10.70;;;;;;4998445;28;20143;-72
2021/04/13 05:59:05;;;;;;;17.58;9.15;;;2.50;10.00;;;;;;4998190;28;20069;-71
2021/04/13 06:01:34;;;;;;;12.27;9.40;;;2.50;7.40;;;;;;4999017;28;20046;-71
2021/04/13 06:04:01;;;;;;;12.18;8.98;;;2.40;7.70;;;;;;4994680;28;20053;-71
2021/04/13 06:06:28;;;;;;;15.30;9.27;;;2.50;8.80;;;;;;4999376;28;20492;-70
2021/04/13 06:08:56;;;;;;;12.60;8.77;;;2.60;7.50;;;;;;4996149;28;20508;-71
2021/04/13 06:11:27;;;;;;;13.73;9.05;;;2.70;6.70;;;;;;4996931;28;20049;-70
2021/04/13 06:13:55;;;;;;;11.55;8.68;;;2.70;7.50;;;;;;4992818;28;20042;-70
2021/04/13 06:16:24;;;;;;;17.58;9.35;;;2.70;7.50;;;;;;4999806;28;20056;-71
2021/04/13 06:18:51;;;;;;;13.80;9.55;;;2.50;7.40;;;;;;4995060;28;20080;-71
2021/04/13 06:21:18;;;;;;;13.93;8.93;;;3.00;7.70;;;;;;4999028;28;20084;-71
2021/04/13 06:23:44;;;;;;;15.73;9.77;;;2.80;6.80;;;;;;4997567;28;20087;-71
2021/04/13 06:26:12;;;;;;;14.77;9.70;;;2.90;6.30;;;;;;5004701;28;20045;-72
2021/04/13 06:28:39;;;;;;;17.50;9.45;;;3.40;5.40;;;;;;4997364;28;20492;-71
2021/04/13 06:31:06;;;;;;;11.80;8.63;;;3.50;3.20;;;;;;4997391;28;20883;-70
2021/04/13 06:33:33;;;;;;;11.82;8.20;;;3.70;4.50;;;;;;4996151;28;20046;-72
2021/04/13 06:36:02;;;;;;;10.93;8.18;;;3.50;2.80;;;;;;4997239;28;20050;-71
2021/04/13 06:38:29;;;;;;;11.88;7.78;;;3.90;1.80;;;;;;5001775;28;20112;-70
2021/04/13 06:41:04;;;;;;;10.50;7.75;;;3.50;1.20;;;;;;4996481;28;20117;-71
2021/04/13 06:44:09;;;;;;;12.00;7.88;;;3.80;3.10;;;;;;4993647;28;20061;-72
2021/04/13 06:46:49;;;;;;;12.10;7.28;;;3.80;1.00;;;;;;4998733;28;20042;-72
2021/04/13 06:49:30;;;;;;;11.40;7.40;;;4.00;1.00;;;;;;4997979;28;20092;-72
2021/04/13 06:52:08;;;;;;;13.00;7.63;;;4.10;1.00;;;;;;4995172;28;20451;-71
2021/04/13 06:54:41;;;;;;;8.88;6.95;;;4.20;1.00;;;;;;4997527;28;20149;-72
2021/04/13 06:57:42;;;;;;;10.95;7.93;;;4.70;1.00;;;;;;4999344;28;20054;-71
2021/04/13 07:00:18;;;;;;;13.07;7.57;;;4.70;1.00;;;;;;5005670;28;20056;-72
2021/04/13 07:02:54;;;;;;;11.18;7.32;;;4.60;1.00;;;;;;4998714;28;20068;-72
2021/04/13 07:05:25;;;;;;;11.90;7.60;;;5.20;1.00;;;;;;4999855;28;20455;-72
2021/04/13 07:07:59;;;;;;;10.15;7.40;;;5.30;1.00;;;;;;4995960;28;20061;-71
2021/04/13 07:10:30;;;;;;;13.07;7.60;;;5.20;1.00;;;;;;5001269;28;20582;-71
2021/04/13 07:13:05;;;;;;;9.73;7.03;;;5.00;1.00;;;;;;4998313;28;20045;-71
2021/04/13 07:15:39;;;;;;;10.75;7.30;;;5.00;1.00;;;;;;5004299;28;20058;-72
2021/04/13 07:18:11;;;;;;;9.73;7.20;;;5.00;1.00;;;;;;5003025;28;20157;-72
2021/04/13 07:20:44;;;;;;;15.25;7.97;;;4.70;1.00;;;;;;5000394;28;20058;-72
2021/04/13 07:23:17;;;;;;;11.13;8.27;;;4.80;1.00;;;;;;4995641;28;20137;-71
2021/04/13 07:25:50;;;;;;;11.43;8.57;;;4.70;1.00;;;;;;5000495;28;20054;-71
2021/04/13 07:28:22;;;;;;;11.45;8.23;;;4.90;1.00;;;;;;4996135;28;20042;-71
2021/04/13 07:30:54;;;;;;;11.65;8.63;;;4.70;1.00;;;;;;5003128;28;20065;-72
2021/04/13 07:33:24;;;;;;;14.85;9.18;;;4.90;1.00;;;;;;5001732;28;20054;-72
2021/04/13 07:35:58;;;;;;;13.15;9.40;;;4.80;1.00;;;;;;5003957;28;20046;-72
2021/04/13 07:38:29;;;;;;;14.57;9.32;;;4.90;1.00;;;;;;5001878;28;20046;-71
2021/04/13 07:41:08;;;;;;;12.20;8.63;;;4.70;1.00;;;;;;4999655;28;20050;-72
2021/04/13 07:43:38;;;;;;;14.25;9.15;;;4.70;1.00;;;;;;4993388;28;21075;-72
2021/04/13 07:46:29;;;;;;;15.82;9.43;;;4.40;1.00;;;;;;5002862;28;20061;-71
2021/04/13 07:49:05;;;;;;;15.88;9.00;;;4.60;1.00;;;;;;5001650;28;20058;-72
2021/04/13 07:51:52;;;;;;;13.45;9.63;;;4.90;1.00;;;;;;5003127;28;20132;-71
2021/04/13 07:54:38;;;;;;;10.40;8.25;;;4.90;1.00;;;;;;5001759;28;20054;-70
2021/04/13 07:57:14;;;;;;;13.43;9.55;;;5.20;1.00;;;;;;4997878;28;20061;-71
2021/04/13 07:59:54;;;;;;;13.60;9.40;;;5.20;1.00;;;;;;4994796;28;20058;-72
2021/04/13 08:02:23;;;;;;;13.02;9.18;;;5.30;1.00;;;;;;4999240;28;20416;-71
2021/04/13 08:04:52;;;;;;;11.40;8.52;;;5.20;1.00;;;;;;4997789;28;20589;-72
2021/04/13 08:07:22;;;;;;;17.00;10.18;;;5.40;1.00;;;;;;4996190;28;20050;-71
2021/04/13 08:10:04;;;;;;;13.02;9.77;;;5.40;1.00;;;;;;5006524;28;20065;-71
2021/04/13 08:12:34;;;;;;;12.30;9.15;;;5.70;1.00;;;;;;5001037;28;20056;-71
2021/04/13 08:15:14;;;;;;;14.30;9.50;;;5.80;1.00;;;;;;4998721;28;20050;-72
2021/04/13 08:18:16;;;;;;;10.27;7.80;;;5.80;1.00;;;;;;5000232;28;20117;-72
2021/04/13 08:20:45;;;;;;;13.23;9.38;;;5.60;1.00;;;;;;4934367;29;20055;-72
2021/04/13 08:23:36;;;;;;;13.90;9.60;;;6.20;1.00;;;;;;4986229;28;20054;-73
2021/04/13 08:26:34;;;;;;;14.65;9.45;;;6.40;1.00;;;;;;5001768;28;20050;-72
2021/04/13 08:29:06;;;;;;;15.27;9.80;;;6.60;1.00;;;;;;5004099;28;20050;-70
2021/04/13 08:34:42;;;;;;;16.73;9.98;;;5.90;1.00;;;;;;4999630;28;20080;-71
2021/04/13 08:37:15;;;;;;;14.00;9.80;;;6.30;1.00;;;;;;4996117;28;20042;-71
2021/04/13 08:39:47;;;;;;;14.98;9.48;;;6.50;1.00;;;;;;5000303;28;20057;-72
2021/04/13 08:42:26;;;;;;;14.40;10.38;;;6.20;1.00;;;;;;4997792;28;20042;-73
2021/04/13 08:44:59;;;;;;;14.38;10.40;;;5.50;1.00;;;;;;4996330;28;20128;-72
2021/04/13 08:47:37;;;;;;;14.40;10.38;;;5.50;1.00;;;;;;5000456;28;20088;-70
2021/04/13 08:50:33;;;;;;;15.35;10.18;;;5.60;1.00;;;;;;4994725;28;20060;-71
2021/04/13 08:53:02;;;;;;;17.70;10.82;;;5.80;1.00;;;;;;4996915;28;20136;-71
2021/04/13 08:55:45;;;;;;;14.35;10.48;;;5.80;1.00;;;;;;5002947;28;20128;-71
2021/04/13 08:58:38;;;;;;;15.30;9.95;;;5.70;1.00;;;;;;4994468;28;20066;-71
2021/04/13 09:01:24;;;;;;;13.45;8.82;;;5.90;1.00;;;;;;5002768;28;20060;-71
2021/04/13 09:03:52;;;;;;;15.07;9.35;;;6.40;1.00;;;;;;4999554;28;20053;-72
2021/04/13 09:06:27;;;;;;;11.77;8.55;;;6.20;1.00;;;;;;5004271;28;20510;-72
2021/04/13 09:09:03;;;;;;;16.10;9.55;;;5.40;1.00;;;;;;4994111;28;20054;-71
2021/04/13 09:11:36;;;;;;;10.50;8.25;;;5.80;1.00;;;;;;5002131;28;20080;-72
2021/04/13 09:14:12;;;;;;;16.70;9.50;;;5.80;1.00;;;;;;5001916;28;20460;-71
2021/04/13 09:16:46;;;;;;;11.85;8.82;;;6.50;1.00;;;;;;5005068;28;20132;-71
2021/04/13 09:19:23;;;;;;;12.93;8.63;;;6.80;1.00;;;;;;4999697;28;20042;-71
2021/04/13 09:21:52;;;;;;;11.85;8.60;;;7.10;1.00;;;;;;5000946;28;20671;-72
2021/04/13 09:24:22;;;;;;;11.32;8.60;;;6.90;1.00;;;;;;5002875;28;20050;-71
2021/04/13 09:27:03;;;;;;;12.10;8.88;;;7.20;1.00;;;;;;4998303;28;20057;-71
2021/04/13 09:29:37;;;;;;;15.63;9.13;;;6.40;1.00;;;;;;4996844;28;20417;-71
2021/04/13 09:32:06;;;;;;;12.82;8.15;;;6.20;1.00;;;;;;5007380;28;20501;-71
2021/04/13 09:35:06;;;;;;;13.07;8.63;;;6.40;1.00;;;;;;5000637;28;20042;-71
2021/04/13 09:37:46;;;;;;;11.90;8.55;;;6.50;1.00;;;;;;4998537;28;20510;-72
2021/04/13 09:40:31;;;;;;;11.23;7.85;;;6.70;1.00;;;;;;4995965;28;20108;-71
2021/04/13 09:43:30;;;;;;;8.82;6.97;;;7.40;1.00;;;;;;4997478;28;20050;-71
2021/04/13 09:46:02;;;;;;;9.27;6.47;;;6.90;1.00;;;;;;4999162;28;20089;-71
2021/04/13 09:48:45;;;;;;;8.85;6.63;;;7.20;1.00;;;;;;4991352;28;20054;-72
2021/04/13 09:51:21;;;;;;;14.32;7.85;;;7.50;1.00;;;;;;4997376;28;20053;-72
2021/04/13 09:54:09;;;;;;;11.63;8.10;;;7.70;1.00;;;;;;5004109;28;20100;-71
2021/04/13 09:57:15;;;;;;;12.82;8.52;;;6.80;1.00;;;;;;4999307;28;20042;-71
2021/04/13 09:59:57;;;;;;;13.05;8.40;;;6.90;1.00;;;;;;4998459;28;20046;-72
2021/04/13 10:02:47;;;;;;;9.88;7.22;;;6.70;1.00;;;;;;5001356;28;20048;-72
2021/04/13 10:05:16;;;;;;;10.43;7.38;;;6.40;1.00;;;;;;4997035;28;20113;-72
2021/04/13 10:07:54;;;;;;;12.13;7.85;;;6.50;1.00;;;;;;4997051;28;20146;-72
2021/04/13 10:10:24;;;;;;;10.55;7.28;;;7.00;1.00;;;;;;4995998;28;20046;-72
2021/04/13 10:13:15;;;;;;;8.07;6.40;;;7.00;1.00;;;;;;4999135;28;20100;-71
2021/04/13 10:16:05;;;;;;;10.23;6.57;;;7.80;1.00;;;;;;4987819;28;20405;-72
2021/04/13 10:19:00;;;;;;;9.93;6.63;;;8.20;1.00;;;;;;4996385;28;20042;-71
2021/04/13 10:21:52;;;;;;;10.30;6.43;;;7.80;1.00;;;;;;4998443;28;20069;-71
2021/04/13 10:24:59;;;;;;;10.43;6.65;;;7.20;1.00;;;;;;4997200;28;20129;-70
2021/04/13 10:28:09;;;;;;;9.38;7.30;;;6.80;1.00;;;;;;4991946;28;20501;-71
2021/04/13 10:31:14;;;;;;;10.05;6.47;;;6.80;1.00;;;;;;4997123;28;20049;-71
2021/04/13 10:34:29;;;;;;;8.27;6.55;;;7.20;1.00;;;;;;4997666;28;20061;-71
2021/04/13 10:37:37;;;;;;;8.85;6.00;;;7.80;1.00;;;;;;4938369;29;20745;-71
2021/04/13 10:40:22;;;;;;;7.60;5.88;;;7.80;1.00;;;;;;4999091;28;20096;-72
2021/04/13 10:43:30;;;;;;;8.32;6.53;;;7.70;1.00;;;;;;5000268;28;20064;-70
2021/04/13 10:46:24;;;;;;;8.25;6.28;;;7.20;1.00;;;;;;4945178;29;20063;-72
2021/04/13 10:49:21;;;;;;;7.70;4.85;;;8.00;1.00;;;;;;4991771;28;20515;-71
2021/04/13 10:52:31;;;;;;;6.90;5.03;;;7.90;1.00;;;;;;4997553;28;20054;-71
2021/04/13 10:55:26;;;;;;;6.47;5.13;;;7.90;1.00;;;;;;4997005;28;20050;-72
2021/04/13 10:58:30;;;;;;;7.47;5.20;;;8.10;1.00;;;;;;4982174;28;20515;-71
2021/04/13 11:01:32;;;;;;;8.57;5.70;;;7.80;1.00;;;;;;5001845;28;20046;-71
2021/04/13 11:04:33;;;;;;;7.00;5.15;;;8.00;1.00;;;;;;4966796;28;20050;-72
2021/04/13 11:07:45;;;;;;;8.65;5.78;;;8.00;1.00;;;;;;5000005;28;20128;-72
2021/04/13 11:10:29;;;;;;;6.50;5.20;;;8.00;1.00;;;;;;4998447;28;20064;-71
2021/04/13 11:13:28;;;;;;;6.88;5.20;;;8.20;1.00;;;;;;5001189;28;20064;-72
2021/04/13 11:16:29;;;;;;;8.88;5.28;;;7.80;1.00;;;;;;5002623;28;20117;-72
2021/04/13 11:19:19;;;;;;;8.13;4.93;;;8.20;1.00;;;;;;4998874;28;20484;-73
2021/04/13 11:22:15;;;;;;;7.78;4.60;;;8.60;1.00;;;;;;5003588;28;20050;-72
2021/04/13 11:25:15;;;;;;;6.85;4.80;;;8.90;1.00;;;;;;5004513;28;20064;-71
2021/04/13 11:28:05;;;;;;;6.43;4.80;;;9.20;1.00;;;;;;5003279;28;20145;-72
2021/04/13 11:31:15;;;;;;;5.82;4.32;;;8.60;1.00;;;;;;4973171;28;20049;-72
2021/04/13 11:33:56;;;;;;;11.10;5.35;;;8.60;1.00;;;;;;4998804;28;20053;-72
2021/04/13 11:36:35;;;;;;;6.85;4.53;;;8.30;1.00;;;;;;5002808;28;20509;-71
2021/04/13 11:39:10;;;;;;;6.03;4.22;;;8.20;1.00;;;;;;4998638;28;20050;-71
2021/04/13 11:42:08;;;;;;;6.57;5.03;;;8.60;1.00;;;;;;5000086;28;20133;-70
2021/04/13 11:44:41;;;;;;;8.48;6.18;;;8.80;1.00;;;;;;4997404;28;20061;-71
2021/04/13 11:47:17;;;;;;;9.45;5.88;;;8.50;1.00;;;;;;5003018;28;20170;-69
2021/04/13 11:49:54;;;;;;;10.85;5.97;;;8.70;1.00;;;;;;4999256;28;20407;-71
2021/04/13 11:52:31;;;;;;;9.63;6.75;;;8.20;1.00;;;;;;5004300;28;20536;-72
2021/04/13 11:54:57;;;;;;;9.80;6.18;;;7.30;1.00;;;;;;5003562;28;20088;-72
2021/04/13 11:57:26;;;;;;;9.98;6.28;;;8.10;1.00;;;;;;5004347;28;20078;-72
2021/04/13 12:00:27;;;;;;;9.93;5.85;;;8.30;1.00;;;;;;5002879;28;20164;-72
2021/04/13 12:03:32;;;;;;;5.95;4.25;;;7.70;1.00;;;;;;4995402;28;20057;-72
2021/04/13 12:06:01;;;;;;;5.35;4.50;;;7.30;1.00;;;;;;4999276;28;20137;-70
2021/04/13 12:08:53;;;;;;;6.22;3.78;;;8.20;1.00;;;;;;5001443;28;20046;-72
2021/04/13 12:11:43;;;;;;;4.97;3.90;;;9.30;1.00;;;;;;4998077;28;20497;-71
2021/04/13 12:14:28;;;;;;;6.97;4.45;;;8.60;1.00;;;;;;5000984;28;20046;-72
2021/04/13 12:17:06;;;;;;;5.63;4.10;;;9.30;1.00;;;;;;5004065;28;20065;-72
2021/04/13 12:19:33;;;;;;;5.03;4.00;;;9.20;1.00;;;;;;4999123;28;20520;-72
2021/04/13 12:22:01;;;;;;;6.22;4.40;;;9.70;1.00;;;;;;5000948;28;20054;-71
2021/04/13 12:24:53;;;;;;;4.35;3.65;;;10.50;1.00;;;;;;4996323;28;20066;-69
2021/04/13 12:27:47;;;;;;;5.97;3.88;;;9.80;1.00;;;;;;4993060;28;20057;-69
2021/04/13 12:30:58;;;;;;;5.32;4.00;;;8.90;1.00;;;;;;4990264;28;20050;-68
2021/04/13 12:33:52;;;;;;;6.57;4.78;;;9.10;1.00;;;;;;4948840;28;20134;-68
2021/04/13 12:36:59;;;;;;;6.20;4.13;;;8.60;1.00;;;;;;4994444;28;20062;-68
2021/04/13 12:39:55;;;;;;;5.55;4.25;;;8.40;1.00;;;;;;4989882;28;20043;-69
2021/04/13 12:42:44;;;;;;;5.93;3.92;;;8.20;1.00;;;;;;4995895;28;20093;-68
2021/04/13 12:45:45;;;;;;;5.15;2.83;;;7.80;1.00;;;;;;4994585;28;20056;-68
2021/04/13 12:48:16;;;;;;;5.57;3.90;;;8.00;1.00;;;;;;4992624;28;20056;-68
2021/04/13 12:50:46;;;;;;;4.97;3.72;;;8.00;1.00;;;;;;4987694;28;20054;-69
2021/04/13 12:53:16;;;;;;;5.70;3.75;;;8.10;1.00;;;;;;4997473;28;20145;-68
2021/04/13 12:55:44;;;;;;;5.28;3.53;;;7.70;1.00;;;;;;4993334;28;20054;-68
2021/04/13 12:58:34;;;;;;;4.57;3.42;;;7.80;1.00;;;;;;4994004;28;20131;-68
2021/04/13 13:01:02;;;;;;;4.38;2.92;;;7.40;1.00;;;;;;4992335;28;20140;-67
2021/04/13 13:03:35;;;;;;;6.05;4.18;;;7.70;1.00;;;;;;4994760;28;20124;-67
2021/04/13 13:06:15;;;;;;;4.18;3.10;;;7.70;1.00;;;;;;4992855;28;20051;-67
2021/04/13 13:08:43;;;;;;;6.43;2.90;;;7.90;1.00;;;;;;4989553;28;20089;-68
2021/04/13 13:11:12;;;;;;;5.65;2.90;;;8.40;1.00;;;;;;4998708;28;20049;-69
2021/04/13 13:13:47;;;;;;;3.83;2.80;;;8.20;1.00;;;;;;4993711;28;20446;-67
2021/04/13 13:16:34;;;;;;;4.82;2.92;;;8.10;1.00;;;;;;4994968;28;20429;-69
2021/04/13 13:19:01;;;;;;;5.32;3.40;;;8.00;1.00;;;;;;4992787;28;20078;-68
2021/04/13 13:21:47;;;;;;;4.25;2.92;;;8.30;1.00;;;;;;4996639;28;20068;-67
2021/04/13 13:24:22;;;;;;;3.78;2.92;;;8.40;1.00;;;;;;4996769;28;20564;-69
2021/04/13 13:26:49;;;;;;;6.65;3.22;;;9.10;1.00;;;;;;4998362;28;20099;-68
2021/04/13 13:29:16;;;;;;;4.97;3.40;;;8.60;1.00;;;;;;4991005;28;20050;-69
2021/04/13 13:31:44;;;;;;;3.83;3.22;;;8.60;1.00;;;;;;4993195;28;20124;-68
2021/04/13 13:34:15;;;;;;;4.30;3.40;;;8.80;1.00;;;;;;4993696;28;20054;-69
2021/04/13 13:36:44;;;;;;;3.95;3.08;;;8.60;1.00;;;;;;4994689;28;20050;-68
2021/04/13 13:39:14;;;;;;;7.50;3.45;;;8.70;1.00;;;;;;4992534;28;20548;-68
2021/04/13 13:41:43;;;;;;;5.40;3.83;;;8.70;1.00;;;;;;4995563;28;20049;-69